| Record Date MM/DD/YYYY | Record Time HH:MM:SS | Record Julian Date NNN day of the year | Air Temperature Max (Degrees Fahrenheit F) | Time Max Air Temperature HH:MM:SS This is the time of max air temp for the prior hour interval listed for record [Time]. | Air Temperature Min (Degrees Fahrenheit F) | Time Min Air Temperature HH:MM:SS This is the time of min air temp for the prior hour interval listed for record [Time]. | Air Temperature Observed (Degrees Fahrenheit F) This is an instantaneous reading at the record [Time]. | Relative Humidity Max (Percent) | Time Max Relative Humidity HH:MM:SS This is the time of max relative humidity for the prior hour interval listed for record [Time]. | Relative Humidity Min (Percent) | Time Min Relative Humidity HH:MM:SS This is the time of min relative humidity for the prior hour interval listed for record [Time]. | Relative Humidity Observed (Percent) This is an instantaneous reading at the record [Time]. | Precipitation (Inches n.nn) rain fall that occurred during the prior hour interval listed for record [Time]. | Wind Speed (Miles Per Hour) Resultant Speed that occurred during the prior hour interval listed for record [Time]. | Wind Direction (Degrees) Resultant Direction that occurred during the prior hour interval listed for record [Time]. | Solar Radiation (Langley's) that occurred during the prior hour interval listed for record [Time]. | Soil Temperature Average at 2 inch depth (Degrees Fahrenheit F) that occurred during the prior hour interval listed for record [Time]. | Soil Temperature Observed at 2 inch depth (Degrees Fahrenheit F) This is an instantaneous reading at the record [Time]. | Soil Temperature Average at 4 inch depth (Degrees Fahrenheit F) that occurred during the prior hour interval listed for record [Time]. | Soil Temperature Observed at 4 inch depth (Degrees Fahrenheit F) This is an instantaneous reading at the record [Time]. |
|---|---|---|---|---|---|---|---|---|---|---|---|---|---|---|---|---|---|---|---|---|
| 04/30/2026 | 0:00:00 | 120 | 60 | 23:00:01 | 59 | 23:43:03 | 59 | 87 | 23:30:02 | 82 | 0:00:00 | 81.9 | 0 | 0.7 | 46 | 0 | 70 | 69 | 71 | 70 |
| 04/30/2026 | 1:00:00 | 120 | 59 | 0:00:00 | 57 | 0:53:03 | 57 | 82 | 0:00:02 | 81 | 0:39:04 | 81.3 | 0 | 0.1 | 26 | 0 | 69 | 69 | 70 | 70 |
| 04/30/2026 | 2:00:00 | 120 | 57 | 1:00:01 | 56 | 1:57:02 | 56 | 83 | 1:18:00 | 81 | 1:44:00 | 81.7 | 0 | 0.0 | 39 | 0 | 68 | 68 | 70 | 69 |
| 04/30/2026 | 3:00:00 | 120 | 56 | 2:03:01 | 55 | 2:57:02 | 56 | 83 | 2:57:03 | 81 | 2:15:03 | 82.2 | 0 | 0.0 | 0 | 0 | 68 | 67 | 69 | 69 |
| 04/30/2026 | 4:00:00 | 120 | 56 | 3:49:00 | 55 | 3:20:00 | 56 | 82 | 3:16:02 | 79 | 3:59:05 | 79.11 | 0 | 0.0 | 0 | 0 | 67 | 67 | 69 | 68 |
| 04/30/2026 | 5:00:00 | 120 | 56 | 4:00:00 | 54 | 4:59:02 | 54 | 80 | 4:57:05 | 79 | 4:08:02 | 79.86 | 0 | 0.0 | 0 | 0 | 67 | 66 | 68 | 68 |
| 04/30/2026 | 6:00:00 | 120 | 56 | 5:52:03 | 54 | 5:10:04 | 55 | 80 | 5:10:00 | 77 | 5:54:04 | 77.45 | 0 | 0.0 | 0 | 4 | 66 | 66 | 68 | 67 |
| 04/30/2026 | 7:00:00 | 120 | 56 | 6:59:04 | 55 | 6:27:04 | 56 | 79 | 6:34:04 | 76 | 7:00:00 | 75.93 | 0 | 0.0 | 0 | 10 | 66 | 66 | 67 | 67 |
| 04/30/2026 | 8:00:00 | 120 | 60 | 7:58:03 | 56 | 7:00:01 | 59 | 76 | 7:01:04 | 69 | 7:59:04 | 68.87 | 0 | 0.0 | 0 | 32 | 66 | 66 | 67 | 67 |
| 04/30/2026 | 9:00:00 | 120 | 63 | 8:59:04 | 59 | 8:00:02 | 63 | 72 | 8:01:04 | 59 | 8:50:05 | 62.31 | 0 | 0.5 | 73 | 54 | 67 | 68 | 67 | 67 |
| 04/30/2026 | 10:00:00 | 120 | 65 | 9:58:00 | 62 | 9:17:02 | 64 | 64 | 9:28:03 | 57 | 9:40:02 | 59.35 | 0 | 5.4 | 72 | 61 | 68 | 69 | 68 | 68 |
| 04/30/2026 | 11:00:00 | 120 | 66 | 10:38:04 | 63 | 10:19:05 | 66 | 64 | 10:10:00 | 54 | 10:32:00 | 59.49 | 0 | 4.9 | 66 | 68 | 70 | 71 | 69 | 69 |
| 04/30/2026 | 12:00:00 | 120 | 68 | 11:17:01 | 65 | 11:03:01 | 67 | 60 | 11:59:03 | 51 | 11:54:05 | 53.26 | 0 | 3.6 | 50 | 71 | 72 | 73 | 70 | 70 |
| 04/30/2026 | 13:00:00 | 120 | 69 | 12:41:03 | 66 | 12:49:04 | 67 | 60 | 12:01:02 | 48 | 12:17:01 | 52.3 | 0 | 4.9 | 58 | 71 | 74 | 74 | 71 | 72 |
| 04/30/2026 | 14:00:00 | 120 | 69 | 13:35:03 | 67 | 13:01:05 | 67 | 57 | 13:02:03 | 45 | 13:40:01 | 51.44 | 0 | 4.6 | 34 | 61 | 75 | 75 | 72 | 73 |
| 04/30/2026 | 15:00:00 | 120 | 68 | 14:04:01 | 66 | 14:59:05 | 66 | 57 | 14:52:00 | 48 | 14:10:05 | 53.74 | 0 | 3.6 | 47 | 33 | 75 | 75 | 73 | 73 |
| 04/30/2026 | 16:00:00 | 120 | 66 | 15:50:05 | 65 | 15:28:00 | 65 | 60 | 15:31:02 | 53 | 15:08:02 | 58.8 | 0 | 2.4 | 55 | 21 | 74 | 74 | 73 | 73 |
| 04/30/2026 | 17:00:00 | 120 | 65 | 16:02:04 | 63 | 16:58:02 | 63 | 65 | 16:48:02 | 57 | 16:13:04 | 64.81 | 0 | 2.0 | 53 | 14 | 73 | 73 | 73 | 73 |
| 04/30/2026 | 18:00:00 | 120 | 63 | 17:00:00 | 61 | 18:00:00 | 61 | 69 | 17:59:03 | 64 | 17:02:02 | 68.83 | 0 | 1.3 | 45 | 6 | 72 | 72 | 72 | 72 |
| 04/30/2026 | 19:00:00 | 120 | 61 | 18:00:00 | 58 | 18:59:04 | 58 | 73 | 18:59:01 | 66 | 18:26:03 | 72.74 | 0 | 0.1 | 61 | 1 | 71 | 70 | 72 | 71 |
| 04/30/2026 | 20:00:00 | 120 | 58 | 19:00:02 | 57 | 19:54:00 | 57 | 79 | 19:31:00 | 72 | 19:00:04 | 74.13 | 0 | 0.0 | 0 | 0 | 70 | 69 | 71 | 71 |
| 04/30/2026 | 21:00:00 | 120 | 57 | 20:17:01 | 56 | 20:59:05 | 56 | 74 | 20:00:01 | 70 | 20:46:03 | 72.16 | 0 | 0.0 | 0 | 0 | 69 | 69 | 70 | 70 |
| 04/30/2026 | 22:00:00 | 120 | 56 | 21:00:00 | 53 | 21:59:05 | 53 | 79 | 22:00:00 | 71 | 21:26:04 | 78.76 | 0 | 0.0 | 0 | 0 | 68 | 68 | 70 | 69 |
| 04/30/2026 | 23:00:00 | 120 | 53 | 22:01:02 | 51 | 22:59:03 | 51 | 87 | 22:59:04 | 79 | 22:00:01 | 87.3 | 0 | 0.0 | 0 | 0 | 67 | 67 | 69 | 69 |
| 05/01/2026 | 0:00:00 | 121 | 51 | 23:47:04 | 51 | 23:01:05 | 51 | 90 | 23:48:01 | 87 | 23:00:00 | 89.6 | 0 | 0.0 | 0 | 0 | 66 | 66 | 68 | 68 |
| 05/01/2026 | 1:00:00 | 121 | 52 | 0:03:04 | 50 | 0:59:04 | 50 | 91 | 1:00:00 | 90 | 0:00:01 | 91.4 | 0 | 0.0 | 0 | 0 | 66 | 66 | 68 | 67 |
| 05/01/2026 | 2:00:00 | 121 | 50 | 1:00:03 | 49 | 1:59:00 | 49 | 93 | 2:00:00 | 91 | 1:01:00 | 92.8 | 0 | 0.0 | 0 | 0 | 65 | 65 | 67 | 67 |
| 05/01/2026 | 3:00:00 | 121 | 49 | 2:56:01 | 48 | 2:23:04 | 49 | 94 | 2:35:00 | 93 | 2:11:02 | 93.8 | 0 | 0.0 | 0 | 0 | 65 | 64 | 67 | 66 |
| 05/01/2026 | 4:00:00 | 121 | 50 | 3:51:05 | 49 | 3:00:03 | 50 | 95 | 3:59:03 | 94 | 3:00:04 | 94.4 | 0 | 0.0 | 0 | 0 | 64 | 64 | 66 | 66 |
| 05/01/2026 | 5:00:00 | 121 | 51 | 4:53:05 | 50 | 4:00:04 | 51 | 95 | 4:39:03 | 94 | 4:22:02 | 94.7 | 0 | 0.0 | 0 | 0 | 64 | 64 | 66 | 66 |
| 05/01/2026 | 6:00:00 | 121 | 51 | 5:57:03 | 50 | 5:27:04 | 51 | 96 | 5:54:05 | 95 | 5:06:03 | 95.2 | 0 | 0.0 | 0 | 2 | 64 | 64 | 65 | 65 |
| 05/01/2026 | 7:00:00 | 121 | 55 | 6:58:05 | 51 | 6:18:02 | 55 | 95 | 6:04:04 | 82 | 7:00:00 | 82 | 0 | 0.0 | 0 | 9 | 64 | 64 | 65 | 65 |
| 05/01/2026 | 8:00:00 | 121 | 58 | 7:59:02 | 55 | 7:00:00 | 58 | 83 | 7:01:00 | 78 | 8:00:00 | 77.54 | 0 | 0.0 | 0 | 19 | 64 | 65 | 65 | 65 |
| 05/01/2026 | 9:00:00 | 121 | 60 | 8:55:04 | 58 | 8:01:02 | 60 | 78 | 8:00:03 | 72 | 8:59:00 | 72.66 | 0 | 0.2 | 35 | 26 | 65 | 65 | 65 | 66 |
| 05/01/2026 | 10:00:00 | 121 | 64 | 9:56:00 | 60 | 9:01:03 | 63 | 76 | 9:04:04 | 67 | 9:56:05 | 67.6 | 0 | 1.1 | 43 | 32 | 66 | 66 | 66 | 66 |
| 05/01/2026 | 11:00:00 | 121 | 65 | 10:49:00 | 63 | 10:00:02 | 64 | 71 | 10:26:03 | 60 | 10:59:04 | 60.35 | 0 | 3.1 | 27 | 35 | 67 | 67 | 66 | 67 |
| 05/01/2026 | 12:00:00 | 121 | 66 | 11:31:05 | 64 | 11:04:00 | 65 | 62 | 11:06:05 | 50 | 11:41:04 | 54.92 | 0 | 4.1 | 21 | 40 | 68 | 68 | 67 | 67 |
| 05/01/2026 | 13:00:00 | 121 | 66 | 12:37:02 | 64 | 12:04:03 | 66 | 59 | 12:09:00 | 50 | 12:26:03 | 54.27 | 0 | 4.7 | 15 | 46 | 68 | 69 | 67 | 68 |
| 05/01/2026 | 14:00:00 | 121 | 67 | 13:18:04 | 65 | 13:53:01 | 65 | 59 | 13:56:01 | 48 | 13:29:03 | 54.29 | 0 | 4.1 | 21 | 44 | 69 | 70 | 68 | 68 |
| 05/01/2026 | 15:00:00 | 121 | 66 | 14:08:04 | 64 | 14:43:02 | 64 | 59 | 14:20:05 | 53 | 14:25:02 | 54.89 | 0 | 5.4 | 4 | 38 | 70 | 70 | 69 | 69 |
| 05/01/2026 | 16:00:00 | 121 | 65 | 15:17:01 | 64 | 15:56:02 | 64 | 59 | 15:59:02 | 52 | 15:29:00 | 57.84 | 0 | 4.8 | 358 | 32 | 70 | 70 | 69 | 69 |
| 05/01/2026 | 17:00:00 | 121 | 66 | 16:39:04 | 64 | 16:00:00 | 64 | 60 | 16:01:00 | 52 | 16:18:00 | 56.54 | 0 | 3.9 | 359 | 24 | 70 | 69 | 69 | 69 |
| 05/01/2026 | 18:00:00 | 121 | 64 | 17:02:00 | 61 | 18:00:00 | 61 | 69 | 17:59:01 | 55 | 17:14:00 | 67.98 | 0 | 1.8 | 13 | 9 | 69 | 69 | 69 | 69 |
| 05/01/2026 | 19:00:00 | 121 | 61 | 18:00:00 | 56 | 18:59:05 | 56 | 82 | 18:57:00 | 67 | 18:01:02 | 81.9 | 0 | 0.0 | 36 | 2 | 68 | 68 | 69 | 68 |
| 05/01/2026 | 20:00:00 | 121 | 56 | 19:00:00 | 55 | 19:40:00 | 55 | 85 | 19:33:02 | 81 | 19:58:01 | 81.4 | 0 | 0.6 | 41 | 0 | 67 | 67 | 68 | 68 |
| 05/01/2026 | 21:00:00 | 121 | 57 | 20:52:01 | 55 | 20:03:03 | 57 | 81 | 20:00:01 | 65 | 20:58:05 | 65.82 | 0 | 0.0 | 26 | 0 | 66 | 66 | 68 | 67 |
| 05/01/2026 | 22:00:00 | 121 | 57 | 21:10:01 | 55 | 21:59:04 | 55 | 73 | 22:00:00 | 63 | 21:09:02 | 73.19 | 0 | 0.0 | 0 | 0 | 66 | 65 | 67 | 67 |
| 05/01/2026 | 23:00:00 | 121 | 55 | 22:08:05 | 52 | 22:53:00 | 53 | 82 | 22:59:01 | 73 | 22:02:01 | 80.6 | 0 | 0.0 | 0 | 0 | 65 | 65 | 67 | 66 |
| 05/02/2026 | 0:00:00 | 122 | 54 | 23:23:01 | 53 | 23:09:01 | 53 | 83 | 23:04:03 | 67 | 23:20:01 | 76.95 | 0 | 0.0 | 0 | 0 | 65 | 64 | 66 | 66 |
| 05/02/2026 | 1:00:00 | 122 | 54 | 0:13:04 | 51 | 0:59:01 | 51 | 79 | 0:57:00 | 68 | 0:12:03 | 75.78 | 0 | 0.0 | 0 | 0 | 64 | 64 | 66 | 65 |
| 05/02/2026 | 2:00:00 | 122 | 51 | 1:01:02 | 48 | 1:59:02 | 48 | 85 | 2:00:00 | 74 | 1:14:03 | 85.2 | 0 | 0.0 | 0 | 0 | 63 | 63 | 65 | 65 |
| 05/02/2026 | 3:00:00 | 122 | 48 | 2:01:03 | 45 | 2:59:03 | 45 | 89 | 2:58:01 | 85 | 2:00:00 | 88.9 | 0 | 0.0 | 10 | 0 | 62 | 62 | 65 | 64 |
| 05/02/2026 | 4:00:00 | 122 | 45 | 3:02:05 | 43 | 3:59:05 | 43 | 91 | 3:56:05 | 89 | 3:00:00 | 91.1 | 0 | 0.0 | 45 | 0 | 62 | 61 | 64 | 64 |
| 05/02/2026 | 5:00:00 | 122 | 43 | 4:00:00 | 42 | 4:59:00 | 42 | 93 | 4:53:02 | 91 | 4:00:00 | 92.5 | 0 | 0.2 | 49 | 0 | 61 | 60 | 63 | 63 |
| 05/02/2026 | 6:00:00 | 122 | 46 | 5:58:00 | 41 | 5:14:00 | 46 | 94 | 5:58:01 | 93 | 5:00:01 | 93.5 | 0 | 0.2 | 52 | 5 | 60 | 60 | 63 | 62 |
| 05/02/2026 | 7:00:00 | 122 | 51 | 7:00:00 | 46 | 6:02:04 | 51 | 94 | 6:00:00 | 87 | 6:59:01 | 86.8 | 0 | 0.6 | 296 | 18 | 60 | 60 | 62 | 62 |
| 05/02/2026 | 8:00:00 | 122 | 61 | 7:58:00 | 51 | 7:00:01 | 60 | 87 | 7:00:03 | 63 | 7:59:02 | 63.48 | 0 | 1.3 | 251 | 37 | 61 | 61 | 62 | 62 |
| 05/02/2026 | 9:00:00 | 122 | 65 | 8:43:02 | 60 | 8:00:03 | 63 | 66 | 8:03:03 | 49 | 8:58:05 | 49.03 | 0 | 1.3 | 207 | 54 | 62 | 63 | 62 | 63 |
| 05/02/2026 | 10:00:00 | 122 | 67 | 9:57:04 | 63 | 9:00:00 | 66 | 52 | 9:06:00 | 42 | 9:59:04 | 43.63 | 0 | 3.2 | 301 | 68 | 64 | 65 | 63 | 64 |
| 05/02/2026 | 11:00:00 | 122 | 68 | 10:41:02 | 66 | 10:00:03 | 67 | 50 | 10:35:04 | 39 | 10:19:03 | 42.72 | 0 | 6.6 | 311 | 77 | 66 | 67 | 64 | 65 |
| 05/02/2026 | 12:00:00 | 122 | 71 | 11:57:03 | 67 | 11:00:01 | 70 | 51 | 11:15:05 | 38 | 11:58:00 | 40.37 | 0 | 6.2 | 306 | 82 | 69 | 70 | 66 | 67 |
| 05/02/2026 | 13:00:00 | 122 | 71 | 12:18:00 | 68 | 12:48:01 | 70 | 48 | 12:23:04 | 35 | 12:01:01 | 42.15 | 0 | 8.2 | 334 | 76 | 71 | 72 | 68 | 69 |
| 05/02/2026 | 14:00:00 | 122 | 73 | 13:21:03 | 69 | 13:45:05 | 72 | 47 | 13:10:03 | 36 | 13:22:03 | 44.47 | 0 | 6.5 | 339 | 72 | 73 | 73 | 69 | 70 |
| 05/02/2026 | 15:00:00 | 122 | 73 | 14:09:04 | 68 | 14:59:05 | 68 | 47 | 14:53:00 | 36 | 14:19:02 | 43.06 | 0 | 7.9 | 333 | 48 | 73 | 73 | 70 | 71 |
| 05/02/2026 | 16:00:00 | 122 | 71 | 15:50:00 | 68 | 15:32:03 | 70 | 48 | 15:10:03 | 37 | 15:52:04 | 39.36 | 0 | 7.2 | 336 | 30 | 72 | 72 | 71 | 71 |
| 05/02/2026 | 17:00:00 | 122 | 70 | 16:49:01 | 68 | 16:19:00 | 69 | 45 | 16:22:03 | 38 | 16:02:00 | 39.6 | 0 | 6.8 | 346 | 20 | 71 | 71 | 71 | 70 |
| 05/02/2026 | 18:00:00 | 122 | 69 | 17:05:03 | 68 | 17:57:05 | 68 | 45 | 17:52:05 | 39 | 17:26:05 | 42.45 | 0 | 5.3 | 354 | 16 | 70 | 69 | 70 | 70 |
| 05/02/2026 | 19:00:00 | 122 | 68 | 18:00:01 | 59 | 18:59:05 | 59 | 62 | 18:59:05 | 42 | 18:02:03 | 62.13 | 0 | 1.2 | 15 | 3 | 69 | 68 | 69 | 69 |
| 05/02/2026 | 20:00:00 | 122 | 59 | 19:00:03 | 53 | 19:59:05 | 53 | 78 | 19:57:03 | 62 | 19:00:02 | 77.75 | 0 | 0.0 | 54 | 0 | 67 | 67 | 69 | 68 |
| 05/02/2026 | 21:00:00 | 122 | 54 | 20:03:00 | 50 | 20:59:05 | 50 | 82 | 20:59:04 | 78 | 20:00:00 | 81.5 | 0 | 0.1 | 35 | 0 | 66 | 65 | 68 | 67 |
| 05/02/2026 | 22:00:00 | 122 | 51 | 21:03:02 | 49 | 21:52:03 | 49 | 85 | 21:54:04 | 81 | 21:21:05 | 83.9 | 0 | 0.7 | 50 | 0 | 65 | 64 | 67 | 66 |
| 05/02/2026 | 23:00:00 | 122 | 54 | 22:41:05 | 49 | 22:02:01 | 54 | 84 | 22:00:00 | 67 | 22:29:01 | 70.07 | 0 | 2.5 | 67 | 0 | 64 | 64 | 66 | 66 |
| 05/03/2026 | 0:00:00 | 123 | 54 | 23:02:00 | 49 | 23:59:01 | 49 | 81 | 23:59:05 | 70 | 23:02:01 | 81.2 | 0 | 1.1 | 75 | 0 | 63 | 63 | 65 | 65 |
| 05/03/2026 | 1:00:00 | 123 | 49 | 0:00:03 | 46 | 0:59:03 | 46 | 87 | 1:00:00 | 81 | 0:00:01 | 87 | 0 | 0.7 | 74 | 0 | 63 | 62 | 65 | 65 |
| 05/03/2026 | 2:00:00 | 123 | 46 | 1:00:01 | 44 | 1:59:05 | 45 | 90 | 1:56:04 | 87 | 1:00:00 | 89.8 | 0 | 1.1 | 64 | 0 | 62 | 61 | 64 | 64 |
| 05/03/2026 | 3:00:00 | 123 | 45 | 2:00:00 | 43 | 2:59:05 | 43 | 92 | 2:51:01 | 90 | 2:00:00 | 91.5 | 0 | 0.8 | 58 | 0 | 61 | 61 | 64 | 63 |
| 05/03/2026 | 4:00:00 | 123 | 43 | 3:00:01 | 42 | 3:49:03 | 42 | 93 | 3:57:02 | 91 | 3:01:04 | 92.9 | 0 | 0.5 | 53 | 0 | 60 | 60 | 63 | 63 |
| 05/03/2026 | 5:00:00 | 123 | 42 | 4:04:01 | 41 | 4:48:00 | 41 | 94 | 4:56:04 | 93 | 4:01:02 | 93.8 | 0 | 0.2 | 75 | 0 | 60 | 60 | 62 | 62 |
| 05/03/2026 | 6:00:00 | 123 | 46 | 5:59:03 | 41 | 5:01:02 | 46 | 95 | 5:41:05 | 94 | 5:01:02 | 94.5 | 0 | 0.6 | 87 | 5 | 59 | 59 | 62 | 62 |
| 05/03/2026 | 7:00:00 | 123 | 52 | 6:59:02 | 46 | 6:00:00 | 52 | 95 | 6:00:00 | 82 | 7:00:00 | 82.3 | 0 | 2.9 | 117 | 20 | 59 | 60 | 61 | 61 |
| 05/03/2026 | 8:00:00 | 123 | 58 | 7:59:05 | 52 | 7:00:03 | 58 | 83 | 7:02:02 | 69 | 7:57:03 | 70.96 | 0 | 5.7 | 132 | 35 | 60 | 61 | 61 | 62 |
| 05/03/2026 | 9:00:00 | 123 | 63 | 8:56:03 | 58 | 8:00:00 | 63 | 72 | 8:00:04 | 56 | 8:58:05 | 58.16 | 0 | 6.3 | 148 | 52 | 61 | 62 | 62 | 62 |
| 05/03/2026 | 10:00:00 | 123 | 67 | 9:50:04 | 63 | 9:03:03 | 67 | 59 | 9:06:02 | 46 | 9:52:02 | 51.24 | 0 | 6.2 | 159 | 65 | 63 | 64 | 63 | 63 |
| 05/03/2026 | 11:00:00 | 123 | 69 | 10:48:00 | 67 | 10:01:03 | 69 | 54 | 10:07:01 | 42 | 10:52:03 | 43.03 | 0 | 5.4 | 195 | 74 | 66 | 67 | 64 | 65 |
| 05/03/2026 | 12:00:00 | 123 | 72 | 11:55:03 | 69 | 11:00:01 | 71 | 48 | 11:12:01 | 36 | 11:56:01 | 42.99 | 0 | 5.9 | 240 | 79 | 68 | 70 | 65 | 66 |
| 05/03/2026 | 13:00:00 | 123 | 74 | 12:52:01 | 71 | 12:08:01 | 73 | 49 | 12:02:03 | 35 | 12:54:00 | 38.12 | 0 | 5.4 | 241 | 78 | 71 | 72 | 67 | 68 |
| 05/03/2026 | 14:00:00 | 123 | 75 | 13:38:02 | 72 | 13:13:01 | 74 | 43 | 13:10:04 | 33 | 13:21:03 | 37.29 | 0 | 5.1 | 254 | 73 | 73 | 74 | 69 | 70 |
| 05/03/2026 | 15:00:00 | 123 | 76 | 14:12:00 | 74 | 14:00:00 | 75 | 44 | 14:11:00 | 33 | 14:54:03 | 39.07 | 0 | 5.4 | 269 | 62 | 74 | 74 | 70 | 71 |
| 05/03/2026 | 16:00:00 | 123 | 76 | 15:16:05 | 75 | 15:06:02 | 75 | 43 | 15:16:00 | 34 | 15:12:04 | 37.64 | 0 | 4.7 | 261 | 47 | 74 | 73 | 71 | 71 |
| 05/03/2026 | 17:00:00 | 123 | 76 | 16:03:00 | 75 | 16:11:00 | 75 | 45 | 16:43:03 | 36 | 16:01:01 | 41.15 | 0 | 3.9 | 250 | 24 | 73 | 72 | 71 | 71 |
| 05/03/2026 | 18:00:00 | 123 | 75 | 17:03:00 | 73 | 17:59:03 | 73 | 47 | 17:59:05 | 38 | 17:15:00 | 46.77 | 0 | 3.0 | 254 | 15 | 72 | 71 | 71 | 71 |
| 05/03/2026 | 19:00:00 | 123 | 73 | 18:00:02 | 61 | 19:00:00 | 61 | 76 | 19:00:00 | 46 | 18:04:04 | 75.52 | 0 | 0.6 | 124 | 3 | 70 | 70 | 70 | 70 |
| 05/03/2026 | 20:00:00 | 123 | 61 | 19:00:01 | 57 | 19:59:05 | 57 | 82 | 20:00:00 | 73 | 19:04:02 | 81.9 | 0 | 0.0 | 57 | 0 | 69 | 68 | 70 | 69 |
| 05/03/2026 | 21:00:00 | 123 | 57 | 20:00:00 | 55 | 21:00:00 | 55 | 84 | 20:59:05 | 79 | 20:33:02 | 83.5 | 0 | 0.0 | 0 | 0 | 67 | 67 | 69 | 68 |
| 05/03/2026 | 22:00:00 | 123 | 56 | 21:34:00 | 55 | 21:16:01 | 55 | 84 | 21:10:01 | 80 | 21:50:04 | 81.3 | 0 | 0.0 | 0 | 0 | 66 | 66 | 68 | 67 |
| 05/03/2026 | 23:00:00 | 123 | 55 | 22:00:01 | 53 | 23:00:00 | 53 | 83 | 22:58:05 | 81 | 22:18:03 | 83.1 | 0 | 0.0 | 0 | 0 | 65 | 65 | 67 | 67 |
| 05/04/2026 | 0:00:00 | 124 | 64 | 23:55:03 | 53 | 23:00:05 | 63 | 84 | 23:07:05 | 65 | 23:55:02 | 66.7 | 0 | 0.0 | 0 | 0 | 65 | 65 | 66 | 66 |
| 05/04/2026 | 1:00:00 | 124 | 64 | 0:41:01 | 63 | 0:00:00 | 64 | 67 | 0:44:00 | 66 | 0:41:00 | 66.92 | 0 | 0.0 | 0 | 0 | 65 | 65 | 66 | 66 |
| 05/04/2026 | 2:00:00 | 124 | 64 | 1:04:00 | 63 | 1:52:03 | 63 | 69 | 1:58:02 | 66 | 1:03:04 | 68.41 | 0 | 0.0 | 0 | 0 | 64 | 64 | 66 | 66 |
| 05/04/2026 | 3:00:00 | 124 | 63 | 2:00:04 | 62 | 2:59:05 | 62 | 72 | 3:00:00 | 68 | 2:00:02 | 72.04 | 0 | 0.0 | 0 | 0 | 64 | 64 | 65 | 65 |
| 05/04/2026 | 4:00:00 | 124 | 62 | 3:01:04 | 60 | 3:59:05 | 60 | 75 | 4:00:00 | 72 | 3:01:02 | 75.14 | 0 | 0.0 | 0 | 0 | 64 | 64 | 65 | 65 |
| 05/04/2026 | 5:00:00 | 124 | 60 | 4:00:00 | 59 | 4:59:02 | 59 | 79 | 4:59:05 | 75 | 4:00:00 | 78.63 | 0 | 0.0 | 0 | 0 | 64 | 64 | 65 | 65 |
| 05/04/2026 | 6:00:00 | 124 | 60 | 5:15:01 | 58 | 5:48:03 | 59 | 82 | 5:55:05 | 78 | 5:15:05 | 80.2 | 0 | 0.0 | 0 | 2 | 64 | 63 | 65 | 65 |
| 05/04/2026 | 7:00:00 | 124 | 64 | 6:55:05 | 59 | 6:00:00 | 64 | 80 | 6:00:01 | 73 | 6:59:02 | 74.27 | 0 | 0.0 | 0 | 17 | 63 | 64 | 64 | 64 |
| 05/04/2026 | 8:00:00 | 124 | 67 | 7:59:05 | 64 | 7:10:04 | 67 | 75 | 7:13:03 | 69 | 7:59:01 | 69.86 | 0 | 0.0 | 231 | 31 | 64 | 65 | 65 | 65 |
| 05/04/2026 | 9:00:00 | 124 | 71 | 8:58:01 | 67 | 8:04:03 | 71 | 71 | 8:00:03 | 62 | 8:55:01 | 64.82 | 0 | 3.5 | 250 | 47 | 65 | 66 | 65 | 65 |
| 05/04/2026 | 10:00:00 | 124 | 75 | 9:58:04 | 71 | 9:00:00 | 75 | 66 | 9:01:00 | 56 | 9:56:00 | 58.15 | 0 | 6.8 | 248 | 67 | 67 | 68 | 66 | 66 |
| 05/04/2026 | 11:00:00 | 124 | 78 | 10:39:00 | 74 | 10:05:01 | 78 | 60 | 10:06:02 | 46 | 10:56:02 | 49.6 | 0 | 8.1 | 242 | 75 | 69 | 71 | 67 | 68 |
| 05/04/2026 | 12:00:00 | 124 | 80 | 11:59:04 | 77 | 11:10:05 | 80 | 50 | 11:27:00 | 42 | 11:39:05 | 45.62 | 0 | 8.6 | 252 | 80 | 72 | 73 | 69 | 69 |
| 05/04/2026 | 13:00:00 | 124 | 80 | 12:00:01 | 78 | 12:29:03 | 79 | 49 | 12:30:03 | 40 | 12:43:02 | 42.57 | 0 | 9.8 | 231 | 76 | 74 | 75 | 70 | 71 |
| 05/04/2026 | 14:00:00 | 124 | 81 | 13:48:04 | 78 | 13:08:04 | 80 | 47 | 13:20:04 | 39 | 13:52:03 | 42.68 | 0 | 10.9 | 219 | 71 | 75 | 76 | 72 | 72 |
| 05/04/2026 | 15:00:00 | 124 | 81 | 14:26:00 | 79 | 14:05:01 | 80 | 47 | 14:31:05 | 40 | 14:51:05 | 41.63 | 0 | 10.6 | 222 | 63 | 76 | 76 | 72 | 73 |
| 05/04/2026 | 16:00:00 | 124 | 81 | 15:04:05 | 78 | 15:59:02 | 78 | 46 | 15:56:01 | 40 | 15:01:00 | 44.04 | 0 | 10.8 | 219 | 47 | 75 | 75 | 73 | 73 |
| 05/04/2026 | 17:00:00 | 124 | 79 | 16:04:01 | 77 | 16:56:05 | 77 | 48 | 16:29:05 | 42 | 16:04:05 | 45.33 | 0 | 10.3 | 212 | 22 | 74 | 73 | 73 | 73 |
| 05/04/2026 | 18:00:00 | 124 | 77 | 17:00:01 | 74 | 17:59:05 | 74 | 51 | 17:59:03 | 45 | 17:00:02 | 48.86 | 0 | 8.6 | 214 | 11 | 73 | 72 | 72 | 72 |
| 05/04/2026 | 19:00:00 | 124 | 74 | 18:02:05 | 71 | 18:57:05 | 71 | 55 | 18:59:02 | 48 | 18:07:03 | 54.24 | 0 | 6.0 | 209 | 2 | 72 | 71 | 72 | 71 |
| 05/04/2026 | 20:00:00 | 124 | 71 | 19:02:04 | 64 | 19:58:00 | 65 | 70 | 19:58:04 | 54 | 19:02:01 | 69.56 | 0 | 2.8 | 152 | 0 | 70 | 70 | 71 | 71 |
| 05/04/2026 | 21:00:00 | 124 | 67 | 20:47:02 | 65 | 20:00:00 | 67 | 70 | 20:00:01 | 63 | 20:47:02 | 64.1 | 0 | 3.4 | 166 | 0 | 69 | 69 | 70 | 70 |
| 05/04/2026 | 22:00:00 | 124 | 67 | 21:26:01 | 66 | 21:42:04 | 67 | 66 | 21:41:02 | 63 | 21:25:00 | 64.54 | 0 | 3.3 | 192 | 0 | 69 | 68 | 70 | 69 |
| 05/04/2026 | 23:00:00 | 124 | 67 | 22:00:02 | 64 | 22:54:03 | 65 | 68 | 22:54:02 | 64 | 22:22:02 | 67.37 | 0 | 3.3 | 203 | 0 | 68 | 68 | 69 | 69 |
| 05/05/2026 | 0:00:00 | 125 | 65 | 23:55:01 | 64 | 23:03:05 | 65 | 68 | 23:02:00 | 66 | 23:54:05 | 66.16 | 0 | 3.5 | 207 | 0 | 68 | 67 | 69 | 68 |
| 05/05/2026 | 1:00:00 | 125 | 65 | 0:00:00 | 65 | 0:13:02 | 65 | 68 | 0:56:05 | 66 | 0:00:01 | 67.89 | 0 | 4.4 | 205 | 0 | 67 | 67 | 68 | 68 |
| 05/05/2026 | 2:00:00 | 125 | 65 | 1:44:02 | 65 | 1:00:01 | 65 | 69 | 1:51:01 | 67 | 1:19:04 | 68.4 | 0 | 5.8 | 208 | 0 | 67 | 67 | 68 | 68 |
| 05/05/2026 | 3:00:00 | 125 | 66 | 2:11:04 | 65 | 2:59:04 | 65 | 70 | 3:00:00 | 68 | 2:11:01 | 70.31 | 0 | 7.3 | 212 | 0 | 67 | 66 | 67 | 67 |
| 05/05/2026 | 4:00:00 | 125 | 65 | 3:06:00 | 64 | 3:59:04 | 64 | 73 | 3:59:04 | 70 | 3:05:05 | 72.91 | 0 | 7.8 | 208 | 0 | 66 | 66 | 67 | 67 |
| 05/05/2026 | 5:00:00 | 125 | 64 | 4:00:00 | 63 | 4:55:04 | 63 | 76 | 4:58:03 | 73 | 4:00:01 | 75.66 | 0 | 6.6 | 200 | 0 | 66 | 66 | 67 | 67 |
| 05/05/2026 | 6:00:00 | 125 | 63 | 5:07:00 | 63 | 5:41:03 | 63 | 78 | 5:59:02 | 75 | 5:07:03 | 77.44 | 0 | 5.5 | 203 | 1 | 66 | 66 | 67 | 66 |
| 05/05/2026 | 7:00:00 | 125 | 63 | 6:24:04 | 63 | 6:00:03 | 63 | 78 | 7:00:00 | 77 | 6:33:04 | 77.89 | 0 | 5.5 | 184 | 4 | 66 | 66 | 66 | 66 |
| 05/05/2026 | 8:00:00 | 125 | 64 | 7:55:04 | 63 | 7:03:02 | 64 | 78 | 7:00:02 | 77 | 7:33:00 | 77.4 | 0 | 6.3 | 171 | 6 | 66 | 66 | 66 | 66 |
| 05/05/2026 | 9:00:00 | 125 | 64 | 8:59:02 | 63 | 8:23:00 | 64 | 82 | 8:37:05 | 77 | 8:05:04 | 79.32 | 0 | 7.9 | 168 | 7 | 66 | 66 | 66 | 66 |
| 05/05/2026 | 10:00:00 | 125 | 66 | 9:40:02 | 64 | 9:00:00 | 66 | 82 | 9:56:04 | 78 | 9:21:01 | 80.8 | 0 | 8.4 | 183 | 11 | 66 | 66 | 66 | 66 |
| 05/05/2026 | 11:00:00 | 125 | 67 | 10:59:02 | 66 | 10:00:05 | 67 | 81 | 10:03:05 | 79 | 10:30:04 | 80 | 0 | 7.9 | 171 | 12 | 66 | 67 | 66 | 67 |
| 05/05/2026 | 12:00:00 | 125 | 71 | 11:57:01 | 67 | 11:00:01 | 70 | 81 | 11:07:02 | 77 | 11:58:03 | 77.18 | 0 | 9.0 | 171 | 20 | 67 | 67 | 67 | 67 |
| 05/05/2026 | 13:00:00 | 125 | 71 | 12:14:00 | 70 | 12:49:04 | 70 | 82 | 12:51:05 | 76 | 12:11:04 | 81.6 | 0 | 10.3 | 187 | 20 | 68 | 68 | 67 | 67 |
| 05/05/2026 | 14:00:00 | 125 | 71 | 13:59:04 | 70 | 13:28:01 | 71 | 83 | 13:27:00 | 81 | 13:04:05 | 81.7 | 0 | 9.5 | 191 | 20 | 68 | 68 | 67 | 67 |
| 05/05/2026 | 15:00:00 | 125 | 72 | 14:59:04 | 71 | 14:06:04 | 72 | 82 | 14:01:05 | 79 | 14:58:03 | 79.03 | 0 | 9.2 | 187 | 22 | 69 | 69 | 68 | 68 |
| 05/05/2026 | 16:00:00 | 125 | 73 | 15:59:05 | 72 | 15:00:01 | 73 | 80 | 15:18:03 | 78 | 15:58:05 | 78.51 | 0 | 8.7 | 190 | 14 | 69 | 69 | 68 | 68 |
| 05/05/2026 | 17:00:00 | 125 | 73 | 16:00:01 | 71 | 16:59:05 | 71 | 83 | 16:59:02 | 78 | 16:01:02 | 82.8 | 0 | 8.5 | 202 | 4 | 69 | 69 | 68 | 68 |
| 05/05/2026 | 18:00:00 | 125 | 72 | 17:43:00 | 71 | 17:23:02 | 71 | 84 | 17:22:04 | 83 | 17:07:00 | 82.9 | 0 | 7.9 | 192 | 4 | 69 | 69 | 68 | 68 |
| 05/05/2026 | 19:00:00 | 125 | 71 | 18:00:03 | 71 | 18:49:03 | 71 | 84 | 18:21:03 | 82 | 18:59:04 | 82.4 | 0 | 5.8 | 171 | 1 | 69 | 68 | 68 | 68 |
| 05/05/2026 | 20:00:00 | 125 | 71 | 19:34:00 | 71 | 19:04:01 | 71 | 83 | 19:05:02 | 81 | 19:34:02 | 81.5 | 0 | 5.1 | 167 | 0 | 68 | 68 | 68 | 68 |
| 05/05/2026 | 21:00:00 | 125 | 72 | 20:56:03 | 71 | 20:02:03 | 72 | 82 | 20:03:04 | 80 | 20:56:01 | 80.4 | 0 | 5.2 | 179 | 0 | 68 | 68 | 68 | 68 |
| 05/05/2026 | 22:00:00 | 125 | 72 | 21:39:02 | 72 | 21:00:04 | 72 | 81 | 21:01:02 | 80 | 21:42:05 | 79.98 | 0 | 6.4 | 190 | 0 | 68 | 68 | 68 | 68 |
| 05/05/2026 | 23:00:00 | 125 | 73 | 22:09:03 | 72 | 22:33:02 | 72 | 81 | 22:58:02 | 80 | 22:10:00 | 81.2 | 0 | 7.1 | 198 | 0 | 68 | 68 | 68 | 68 |
| 05/06/2026 | 0:00:00 | 126 | 73 | 23:56:00 | 72 | 23:00:05 | 73 | 82 | 23:59:04 | 81 | 23:08:04 | 81.8 | 0 | 8.3 | 205 | 0 | 68 | 68 | 68 | 68 |
| 05/06/2026 | 1:00:00 | 126 | 74 | 0:48:01 | 73 | 0:01:00 | 74 | 82 | 0:07:01 | 82 | 0:00:03 | 81.8 | 0 | 8.2 | 225 | 0 | 68 | 68 | 68 | 68 |
| 05/06/2026 | 2:00:00 | 126 | 74 | 1:00:00 | 72 | 1:32:00 | 73 | 88 | 1:32:04 | 82 | 1:00:01 | 86.9 | 0 | 7.5 | 227 | 0 | 68 | 68 | 68 | 68 |
| 05/06/2026 | 3:00:00 | 126 | 73 | 2:00:00 | 55 | 2:47:03 | 56 | 92 | 2:58:05 | 82 | 2:08:01 | 92.4 | 0.02 | 8.1 | 356 | 0 | 68 | 67 | 68 | 68 |
| 05/06/2026 | 4:00:00 | 126 | 57 | 3:22:01 | 55 | 3:37:05 | 55 | 94 | 3:52:02 | 92 | 3:28:01 | 93.9 | 0.2 | 3.8 | 18 | 0 | 67 | 66 | 68 | 67 |
| 05/06/2026 | 5:00:00 | 126 | 56 | 4:23:00 | 55 | 4:59:02 | 55 | 95 | 4:55:03 | 94 | 4:00:00 | 94.8 | 0.46 | 3.9 | 22 | 0 | 65 | 64 | 67 | 66 |
| 05/06/2026 | 6:00:00 | 126 | 55 | 5:06:05 | 54 | 5:59:00 | 54 | 96 | 5:53:04 | 95 | 5:00:03 | 95.5 | 0 | 2.6 | 10 | 1 | 64 | 64 | 66 | 65 |
| 05/06/2026 | 7:00:00 | 126 | 55 | 6:59:03 | 54 | 6:00:00 | 55 | 96 | 6:17:02 | 95 | 6:51:04 | 95.5 | 0 | 2.5 | 22 | 3 | 64 | 64 | 65 | 65 |
| 05/06/2026 | 8:00:00 | 126 | 55 | 7:11:02 | 53 | 7:48:04 | 54 | 96 | 7:11:02 | 95 | 7:34:00 | 95.2 | 0 | 3.8 | 18 | 7 | 65 | 65 | 65 | 65 |
| 05/06/2026 | 9:00:00 | 126 | 54 | 8:13:04 | 54 | 8:05:05 | 54 | 95 | 8:12:05 | 94 | 8:56:04 | 94.3 | 0.05 | 3.7 | 31 | 7 | 65 | 65 | 65 | 65 |
| 05/06/2026 | 10:00:00 | 126 | 55 | 9:06:02 | 54 | 9:46:01 | 54 | 95 | 9:15:05 | 94 | 9:56:01 | 93.9 | 0.05 | 4.3 | 10 | 12 | 65 | 65 | 65 | 65 |
| 05/06/2026 | 11:00:00 | 126 | 55 | 10:49:05 | 54 | 10:16:05 | 54 | 94 | 10:04:02 | 93 | 10:52:05 | 93.1 | 0 | 3.7 | 12 | 10 | 65 | 65 | 65 | 65 |
| 05/06/2026 | 12:00:00 | 126 | 55 | 11:42:02 | 53 | 11:06:03 | 55 | 94 | 11:31:00 | 93 | 11:46:03 | 93.7 | 0.02 | 3.0 | 7 | 13 | 65 | 65 | 65 | 65 |
| 05/06/2026 | 13:00:00 | 126 | 56 | 12:07:01 | 54 | 12:51:00 | 55 | 94 | 12:02:00 | 92 | 12:42:05 | 92.7 | 0 | 3.8 | 9 | 15 | 65 | 65 | 65 | 65 |
| 05/06/2026 | 14:00:00 | 126 | 55 | 13:02:04 | 54 | 13:53:01 | 54 | 93 | 13:01:02 | 91 | 13:08:01 | 91.9 | 0 | 5.3 | 358 | 8 | 65 | 65 | 65 | 65 |
| 05/06/2026 | 15:00:00 | 126 | 55 | 14:59:03 | 54 | 14:09:01 | 55 | 93 | 14:50:04 | 92 | 14:09:01 | 92.7 | 0 | 2.8 | 23 | 8 | 65 | 65 | 65 | 65 |
| 05/06/2026 | 16:00:00 | 126 | 56 | 15:10:01 | 55 | 15:00:00 | 56 | 94 | 15:07:02 | 91 | 15:51:05 | 91.4 | 0 | 3.2 | 57 | 16 | 65 | 65 | 65 | 65 |
| 05/06/2026 | 17:00:00 | 126 | 56 | 16:32:01 | 55 | 16:14:03 | 55 | 92 | 16:39:04 | 91 | 16:14:02 | 91.5 | 0 | 2.5 | 31 | 6 | 65 | 65 | 65 | 65 |
| 05/06/2026 | 18:00:00 | 126 | 56 | 17:22:04 | 55 | 17:57:03 | 55 | 92 | 17:22:04 | 91 | 17:42:04 | 91.5 | 0 | 3.2 | 14 | 3 | 65 | 65 | 65 | 65 |
| 05/06/2026 | 19:00:00 | 126 | 55 | 18:02:03 | 54 | 19:00:00 | 54 | 92 | 18:43:02 | 91 | 18:07:01 | 91.6 | 0 | 2.6 | 33 | 0 | 65 | 65 | 65 | 65 |
| 05/06/2026 | 20:00:00 | 126 | 54 | 19:22:01 | 54 | 19:46:02 | 54 | 92 | 19:22:02 | 91 | 19:57:04 | 91.4 | 0 | 2.6 | 40 | 0 | 65 | 64 | 65 | 65 |
| 05/06/2026 | 21:00:00 | 126 | 54 | 20:01:01 | 54 | 20:50:03 | 54 | 91 | 20:01:01 | 91 | 20:43:05 | 91 | 0 | 2.3 | 39 | 0 | 64 | 64 | 65 | 65 |
| 05/06/2026 | 22:00:00 | 126 | 54 | 21:04:03 | 54 | 21:56:02 | 54 | 92 | 21:58:03 | 91 | 21:02:00 | 92.1 | 0.01 | 2.0 | 25 | 0 | 64 | 64 | 65 | 65 |
| 05/06/2026 | 23:00:00 | 126 | 54 | 22:00:03 | 53 | 22:38:01 | 54 | 92 | 22:12:01 | 92 | 22:57:05 | 91.5 | 0 | 1.9 | 47 | 0 | 64 | 64 | 64 | 64 |
| 05/07/2026 | 0:00:00 | 127 | 54 | 23:33:03 | 54 | 23:06:02 | 54 | 92 | 23:00:02 | 91 | 23:52:03 | 90.9 | 0 | 1.1 | 23 | 0 | 64 | 63 | 64 | 64 |
| 05/07/2026 | 1:00:00 | 127 | 54 | 0:01:05 | 53 | 0:51:04 | 53 | 92 | 0:58:01 | 91 | 0:09:01 | 91.7 | 0 | 0.9 | 8 | 0 | 63 | 63 | 64 | 64 |
| 05/07/2026 | 2:00:00 | 127 | 54 | 1:15:04 | 53 | 1:53:01 | 53 | 92 | 1:21:04 | 92 | 1:02:02 | 91.9 | 0 | 1.2 | 6 | 0 | 63 | 63 | 64 | 64 |
| 05/07/2026 | 3:00:00 | 127 | 53 | 2:31:02 | 53 | 2:58:00 | 53 | 92 | 2:03:00 | 91 | 2:54:04 | 91.6 | 0 | 2.0 | 353 | 0 | 63 | 63 | 64 | 64 |
| 05/07/2026 | 4:00:00 | 127 | 53 | 3:00:00 | 52 | 3:59:02 | 52 | 92 | 3:51:03 | 92 | 3:05:02 | 92.1 | 0 | 1.8 | 356 | 0 | 63 | 62 | 63 | 63 |
| Average | 62.21 | 59.84 | 60.94 | 76.06 | 69.88 | 73.03 | 0 | 3.34 | 17.16 | 66.9 | 66.88 | 67.13 | 67.09 | |||||||
| Total | 0.81 |